sensor_id;sensor_type;location;lat;lon;timestamp;P1;durP1;ratioP1;P2;durP2;ratioP2
64550;SDS011;50945;44.472;-123.352;2023-05-07T00:00:38;0.38;;;0.20;;
64550;SDS011;50945;44.472;-123.352;2023-05-07T00:03:05;1.75;;;0.32;;
64550;SDS011;50945;44.472;-123.352;2023-05-07T00:05:31;0.30;;;0.22;;
64550;SDS011;50945;44.472;-123.352;2023-05-07T00:07:58;0.32;;;0.32;;
64550;SDS011;50945;44.472;-123.352;2023-05-07T00:10:25;0.77;;;0.75;;
64550;SDS011;50945;44.472;-123.352;2023-05-07T00:12:51;1.30;;;0.22;;
64550;SDS011;50945;44.472;-123.352;2023-05-07T00:15:17;1.05;;;0.60;;
64550;SDS011;50945;44.472;-123.352;2023-05-07T00:17:45;1.60;;;0.30;;
64550;SDS011;50945;44.472;-123.352;2023-05-07T00:20:11;0.10;;;0.10;;
64550;SDS011;50945;44.472;-123.352;2023-05-07T00:22:38;0.10;;;0.10;;
64550;SDS011;50945;44.472;-123.352;2023-05-07T00:25:04;0.20;;;0.03;;
64550;SDS011;50945;44.472;-123.352;2023-05-07T00:27:31;0.10;;;0.10;;
64550;SDS011;50945;44.472;-123.352;2023-05-07T00:29:57;0.82;;;0.17;;
64550;SDS011;50945;44.472;-123.352;2023-05-07T00:32:23;1.38;;;0.10;;
64550;SDS011;50945;44.472;-123.352;2023-05-07T00:34:49;0.10;;;0.10;;
64550;SDS011;50945;44.472;-123.352;2023-05-07T00:37:16;0.15;;;0.15;;
64550;SDS011;50945;44.472;-123.352;2023-05-07T00:42:08;1.38;;;0.52;;
64550;SDS011;50945;44.472;-123.352;2023-05-07T00:44:36;0.45;;;0.30;;
64550;SDS011;50945;44.472;-123.352;2023-05-07T00:47:03;0.22;;;0.17;;
64550;SDS011;50945;44.472;-123.352;2023-05-07T00:49:34;0.70;;;0.38;;
64550;SDS011;50945;44.472;-123.352;2023-05-07T00:52:09;1.70;;;0.30;;
64550;SDS011;50945;44.472;-123.352;2023-05-07T00:54:38;0.30;;;0.30;;
64550;SDS011;50945;44.472;-123.352;2023-05-07T00:57:06;2.17;;;1.02;;
64550;SDS011;50945;44.472;-123.352;2023-05-07T00:59:34;1.10;;;0.30;;
64550;SDS011;50945;44.472;-123.352;2023-05-07T01:02:01;0.55;;;0.20;;
64550;SDS011;50945;44.472;-123.352;2023-05-07T01:04:27;0.35;;;0.30;;
64550;SDS011;50945;44.472;-123.352;2023-05-07T01:06:56;1.77;;;0.40;;
64550;SDS011;50945;44.472;-123.352;2023-05-07T01:09:24;0.95;;;0.20;;
64550;SDS011;50945;44.472;-123.352;2023-05-07T01:11:51;1.10;;;0.35;;
64550;SDS011;50945;44.472;-123.352;2023-05-07T01:14:19;0.47;;;0.22;;
64550;SDS011;50945;44.472;-123.352;2023-05-07T01:16:48;1.63;;;0.65;;
64550;SDS011;50945;44.472;-123.352;2023-05-07T01:19:17;1.00;;;0.60;;
64550;SDS011;50945;44.472;-123.352;2023-05-07T01:21:48;0.28;;;0.28;;
64550;SDS011;50945;44.472;-123.352;2023-05-07T01:24:14;1.15;;;0.20;;
64550;SDS011;50945;44.472;-123.352;2023-05-07T01:26:42;0.47;;;0.45;;
64550;SDS011;50945;44.472;-123.352;2023-05-07T01:29:10;0.43;;;0.40;;
64550;SDS011;50945;44.472;-123.352;2023-05-07T01:31:36;1.60;;;0.77;;
64550;SDS011;50945;44.472;-123.352;2023-05-07T01:34:02;1.05;;;0.38;;
64550;SDS011;50945;44.472;-123.352;2023-05-07T01:36:30;1.27;;;1.17;;
64550;SDS011;50945;44.472;-123.352;2023-05-07T01:38:58;1.00;;;0.70;;
64550;SDS011;50945;44.472;-123.352;2023-05-07T01:41:25;0.75;;;0.40;;
64550;SDS011;50945;44.472;-123.352;2023-05-07T01:48:45;0.28;;;0.28;;
64550;SDS011;50945;44.472;-123.352;2023-05-07T01:51:11;0.10;;;0.10;;
64550;SDS011;50945;44.472;-123.352;2023-05-07T01:56:06;1.40;;;0.40;;
64550;SDS011;50945;44.472;-123.352;2023-05-07T01:58:32;0.40;;;0.40;;
64550;SDS011;50945;44.472;-123.352;2023-05-07T02:00:59;0.82;;;0.15;;
64550;SDS011;50945;44.472;-123.352;2023-05-07T02:03:26;1.52;;;0.25;;
64550;SDS011;50945;44.472;-123.352;2023-05-07T02:05:52;0.52;;;0.52;;
64550;SDS011;50945;44.472;-123.352;2023-05-07T02:08:19;0.20;;;0.20;;
64550;SDS011;50945;44.472;-123.352;2023-05-07T02:10:45;0.95;;;0.25;;
64550;SDS011;50945;44.472;-123.352;2023-05-07T02:13:12;1.40;;;0.28;;
64550;SDS011;50945;44.472;-123.352;2023-05-07T02:15:38;0.40;;;0.30;;
64550;SDS011;50945;44.472;-123.352;2023-05-07T02:18:06;0.60;;;0.28;;
64550;SDS011;50945;44.472;-123.352;2023-05-07T02:20:34;2.10;;;0.73;;
64550;SDS011;50945;44.472;-123.352;2023-05-07T02:23:00;1.10;;;0.45;;
64550;SDS011;50945;44.472;-123.352;2023-05-07T02:25:30;1.42;;;0.68;;
64550;SDS011;50945;44.472;-123.352;2023-05-07T02:27:56;3.50;;;1.02;;
64550;SDS011;50945;44.472;-123.352;2023-05-07T02:30:22;2.20;;;1.20;;
64550;SDS011;50945;44.472;-123.352;2023-05-07T02:32:50;1.85;;;0.50;;
64550;SDS011;50945;44.472;-123.352;2023-05-07T02:35:16;0.63;;;0.63;;
64550;SDS011;50945;44.472;-123.352;2023-05-07T02:37:43;2.90;;;0.60;;
64550;SDS011;50945;44.472;-123.352;2023-05-07T02:40:09;2.83;;;0.73;;
64550;SDS011;50945;44.472;-123.352;2023-05-07T02:42:36;2.42;;;0.98;;
64550;SDS011;50945;44.472;-123.352;2023-05-07T02:45:02;1.08;;;0.85;;
64550;SDS011;50945;44.472;-123.352;2023-05-07T02:47:29;2.22;;;0.90;;
64550;SDS011;50945;44.472;-123.352;2023-05-07T02:49:55;0.55;;;0.55;;
64550;SDS011;50945;44.472;-123.352;2023-05-07T02:52:21;4.45;;;1.58;;
64550;SDS011;50945;44.472;-123.352;2023-05-07T02:54:48;5.78;;;1.30;;
64550;SDS011;50945;44.472;-123.352;2023-05-07T02:57:16;1.90;;;0.80;;
64550;SDS011;50945;44.472;-123.352;2023-05-07T02:59:42;4.50;;;1.08;;
64550;SDS011;50945;44.472;-123.352;2023-05-07T03:02:09;2.53;;;1.50;;
64550;SDS011;50945;44.472;-123.352;2023-05-07T03:04:36;2.00;;;1.15;;
64550;SDS011;50945;44.472;-123.352;2023-05-07T03:09:30;1.45;;;1.00;;
64550;SDS011;50945;44.472;-123.352;2023-05-07T03:11:56;2.45;;;0.82;;
64550;SDS011;50945;44.472;-123.352;2023-05-07T03:14:23;2.75;;;0.88;;
64550;SDS011;50945;44.472;-123.352;2023-05-07T03:16:49;3.00;;;1.30;;
64550;SDS011;50945;44.472;-123.352;2023-05-07T03:19:17;1.40;;;1.30;;
64550;SDS011;50945;44.472;-123.352;2023-05-07T03:21:43;1.77;;;1.35;;
64550;SDS011;50945;44.472;-123.352;2023-05-07T03:24:10;2.42;;;1.15;;
64550;SDS011;50945;44.472;-123.352;2023-05-07T03:26:37;1.05;;;0.90;;
64550;SDS011;50945;44.472;-123.352;2023-05-07T03:29:04;2.72;;;1.30;;
64550;SDS011;50945;44.472;-123.352;2023-05-07T03:31:30;1.00;;;1.00;;
64550;SDS011;50945;44.472;-123.352;2023-05-07T03:33:57;0.88;;;0.85;;
64550;SDS011;50945;44.472;-123.352;2023-05-07T03:36:23;2.40;;;1.30;;
64550;SDS011;50945;44.472;-123.352;2023-05-07T03:38:52;0.80;;;0.80;;
64550;SDS011;50945;44.472;-123.352;2023-05-07T03:41:18;2.15;;;1.40;;
64550;SDS011;50945;44.472;-123.352;2023-05-07T03:43:47;2.78;;;1.40;;
64550;SDS011;50945;44.472;-123.352;2023-05-07T03:46:14;4.13;;;1.80;;
64550;SDS011;50945;44.472;-123.352;2023-05-07T03:48:40;0.90;;;0.90;;
64550;SDS011;50945;44.472;-123.352;2023-05-07T03:51:10;1.42;;;1.30;;
64550;SDS011;50945;44.472;-123.352;2023-05-07T03:53:36;2.67;;;1.13;;
64550;SDS011;50945;44.472;-123.352;2023-05-07T03:56:02;2.50;;;1.73;;
64550;SDS011;50945;44.472;-123.352;2023-05-07T03:58:29;2.05;;;1.13;;
64550;SDS011;50945;44.472;-123.352;2023-05-07T04:00:55;2.47;;;1.55;;
64550;SDS011;50945;44.472;-123.352;2023-05-07T04:03:21;3.53;;;1.38;;
64550;SDS011;50945;44.472;-123.352;2023-05-07T04:05:48;3.33;;;1.60;;
64550;SDS011;50945;44.472;-123.352;2023-05-07T04:08:14;4.10;;;1.58;;
64550;SDS011;50945;44.472;-123.352;2023-05-07T04:10:42;3.05;;;1.38;;
64550;SDS011;50945;44.472;-123.352;2023-05-07T04:13:08;3.65;;;1.60;;
64550;SDS011;50945;44.472;-123.352;2023-05-07T04:15:35;3.90;;;2.35;;
64550;SDS011;50945;44.472;-123.352;2023-05-07T04:18:04;5.47;;;2.17;;
64550;SDS011;50945;44.472;-123.352;2023-05-07T04:20:30;3.50;;;2.08;;
64550;SDS011;50945;44.472;-123.352;2023-05-07T04:23:01;4.50;;;2.10;;
64550;SDS011;50945;44.472;-123.352;2023-05-07T04:25:29;2.75;;;1.48;;
64550;SDS011;50945;44.472;-123.352;2023-05-07T04:27:55;4.63;;;1.83;;
64550;SDS011;50945;44.472;-123.352;2023-05-07T04:30:22;1.50;;;1.40;;
64550;SDS011;50945;44.472;-123.352;2023-05-07T04:32:48;3.63;;;1.48;;
64550;SDS011;50945;44.472;-123.352;2023-05-07T04:35:15;1.10;;;1.10;;
64550;SDS011;50945;44.472;-123.352;2023-05-07T04:37:43;3.78;;;0.90;;
64550;SDS011;50945;44.472;-123.352;2023-05-07T04:40:09;4.78;;;1.65;;
64550;SDS011;50945;44.472;-123.352;2023-05-07T04:42:36;1.20;;;1.20;;
64550;SDS011;50945;44.472;-123.352;2023-05-07T04:45:02;1.40;;;1.25;;
64550;SDS011;50945;44.472;-123.352;2023-05-07T04:47:30;1.80;;;1.45;;
64550;SDS011;50945;44.472;-123.352;2023-05-07T04:49:57;1.65;;;1.40;;
64550;SDS011;50945;44.472;-123.352;2023-05-07T04:54:49;2.50;;;1.40;;
64550;SDS011;50945;44.472;-123.352;2023-05-07T04:57:17;2.53;;;1.20;;
64550;SDS011;50945;44.472;-123.352;2023-05-07T04:59:45;2.72;;;1.35;;
64550;SDS011;50945;44.472;-123.352;2023-05-07T05:02:11;2.45;;;1.17;;
64550;SDS011;50945;44.472;-123.352;2023-05-07T05:04:39;2.67;;;1.13;;
64550;SDS011;50945;44.472;-123.352;2023-05-07T05:07:05;3.97;;;1.20;;
64550;SDS011;50945;44.472;-123.352;2023-05-07T05:09:31;2.45;;;1.50;;
64550;SDS011;50945;44.472;-123.352;2023-05-07T05:11:59;2.42;;;1.20;;
64550;SDS011;50945;44.472;-123.352;2023-05-07T05:14:25;1.38;;;1.27;;
64550;SDS011;50945;44.472;-123.352;2023-05-07T05:16:51;1.52;;;1.42;;
64550;SDS011;50945;44.472;-123.352;2023-05-07T05:19:18;2.35;;;1.42;;
64550;SDS011;50945;44.472;-123.352;2023-05-07T05:21:44;3.30;;;1.60;;
64550;SDS011;50945;44.472;-123.352;2023-05-07T05:24:10;1.73;;;1.35;;
64550;SDS011;50945;44.472;-123.352;2023-05-07T05:26:38;2.72;;;1.35;;
64550;SDS011;50945;44.472;-123.352;2023-05-07T05:29:04;1.88;;;1.02;;
64550;SDS011;50945;44.472;-123.352;2023-05-07T05:31:31;3.65;;;1.35;;
64550;SDS011;50945;44.472;-123.352;2023-05-07T05:33:58;3.97;;;1.70;;
64550;SDS011;50945;44.472;-123.352;2023-05-07T05:36:25;1.42;;;1.33;;
64550;SDS011;50945;44.472;-123.352;2023-05-07T05:38:51;3.75;;;1.85;;
64550;SDS011;50945;44.472;-123.352;2023-05-07T05:41:17;2.55;;;1.33;;
64550;SDS011;50945;44.472;-123.352;2023-05-07T05:43:44;3.70;;;1.60;;
64550;SDS011;50945;44.472;-123.352;2023-05-07T05:46:10;3.70;;;1.60;;
64550;SDS011;50945;44.472;-123.352;2023-05-07T05:48:37;2.63;;;1.80;;
64550;SDS011;50945;44.472;-123.352;2023-05-07T05:51:04;4.30;;;2.28;;
64550;SDS011;50945;44.472;-123.352;2023-05-07T05:53:30;1.50;;;1.40;;
64550;SDS011;50945;44.472;-123.352;2023-05-07T05:55:56;1.63;;;1.48;;
64550;SDS011;50945;44.472;-123.352;2023-05-07T05:58:29;1.45;;;1.35;;
64550;SDS011;50945;44.472;-123.352;2023-05-07T06:00:55;2.17;;;1.17;;
64550;SDS011;50945;44.472;-123.352;2023-05-07T06:03:21;1.88;;;1.63;;
64550;SDS011;50945;44.472;-123.352;2023-05-07T06:05:48;5.68;;;1.58;;
64550;SDS011;50945;44.472;-123.352;2023-05-07T06:08:17;1.77;;;1.63;;
64550;SDS011;50945;44.472;-123.352;2023-05-07T06:10:43;4.43;;;1.17;;
64550;SDS011;50945;44.472;-123.352;2023-05-07T06:13:12;1.70;;;1.60;;
64550;SDS011;50945;44.472;-123.352;2023-05-07T06:15:39;3.38;;;1.45;;
64550;SDS011;50945;44.472;-123.352;2023-05-07T06:18:05;2.38;;;1.80;;
64550;SDS011;50945;44.472;-123.352;2023-05-07T06:20:31;4.22;;;1.80;;
64550;SDS011;50945;44.472;-123.352;2023-05-07T06:22:57;4.45;;;1.45;;
64550;SDS011;50945;44.472;-123.352;2023-05-07T06:25:23;1.58;;;1.30;;
64550;SDS011;50945;44.472;-123.352;2023-05-07T06:27:50;1.23;;;1.20;;
64550;SDS011;50945;44.472;-123.352;2023-05-07T06:30:17;3.08;;;1.77;;
64550;SDS011;50945;44.472;-123.352;2023-05-07T06:32:43;1.52;;;1.42;;
64550;SDS011;50945;44.472;-123.352;2023-05-07T06:35:10;2.25;;;1.13;;
64550;SDS011;50945;44.472;-123.352;2023-05-07T06:37:37;2.05;;;1.20;;
64550;SDS011;50945;44.472;-123.352;2023-05-07T06:40:07;1.33;;;1.23;;
64550;SDS011;50945;44.472;-123.352;2023-05-07T06:45:01;4.78;;;1.70;;
64550;SDS011;50945;44.472;-123.352;2023-05-07T06:47:28;1.67;;;1.27;;
64550;SDS011;50945;44.472;-123.352;2023-05-07T06:49:55;2.08;;;1.35;;
64550;SDS011;50945;44.472;-123.352;2023-05-07T06:52:21;6.47;;;1.83;;
64550;SDS011;50945;44.472;-123.352;2023-05-07T06:54:47;3.70;;;1.40;;
64550;SDS011;50945;44.472;-123.352;2023-05-07T06:57:14;4.15;;;1.90;;
64550;SDS011;50945;44.472;-123.352;2023-05-07T06:59:40;3.53;;;1.63;;
64550;SDS011;50945;44.472;-123.352;2023-05-07T07:02:06;4.93;;;1.80;;
64550;SDS011;50945;44.472;-123.352;2023-05-07T07:04:33;2.85;;;1.83;;
64550;SDS011;50945;44.472;-123.352;2023-05-07T07:06:59;3.53;;;2.10;;
64550;SDS011;50945;44.472;-123.352;2023-05-07T07:09:26;3.72;;;1.80;;
64550;SDS011;50945;44.472;-123.352;2023-05-07T07:11:52;3.38;;;2.13;;
64550;SDS011;50945;44.472;-123.352;2023-05-07T07:14:19;6.07;;;2.10;;
64550;SDS011;50945;44.472;-123.352;2023-05-07T07:16:46;3.22;;;1.55;;
64550;SDS011;50945;44.472;-123.352;2023-05-07T07:19:12;8.23;;;2.42;;
64550;SDS011;50945;44.472;-123.352;2023-05-07T07:21:40;6.35;;;2.40;;
64550;SDS011;50945;44.472;-123.352;2023-05-07T07:24:07;5.63;;;2.05;;
64550;SDS011;50945;44.472;-123.352;2023-05-07T07:26:33;7.03;;;2.58;;
64550;SDS011;50945;44.472;-123.352;2023-05-07T07:28:59;5.35;;;2.00;;
64550;SDS011;50945;44.472;-123.352;2023-05-07T07:31:26;4.30;;;2.50;;
64550;SDS011;50945;44.472;-123.352;2023-05-07T07:33:52;9.48;;;2.85;;
64550;SDS011;50945;44.472;-123.352;2023-05-07T07:36:18;3.55;;;1.90;;
64550;SDS011;50945;44.472;-123.352;2023-05-07T07:38:44;5.25;;;2.13;;
64550;SDS011;50945;44.472;-123.352;2023-05-07T07:41:10;4.85;;;1.92;;
64550;SDS011;50945;44.472;-123.352;2023-05-07T07:43:36;2.47;;;1.40;;
64550;SDS011;50945;44.472;-123.352;2023-05-07T07:46:03;5.43;;;1.50;;
64550;SDS011;50945;44.472;-123.352;2023-05-07T07:48:30;4.50;;;2.55;;
64550;SDS011;50945;44.472;-123.352;2023-05-07T07:50:56;6.45;;;2.90;;
64550;SDS011;50945;44.472;-123.352;2023-05-07T07:53:22;6.20;;;2.70;;
64550;SDS011;50945;44.472;-123.352;2023-05-07T07:55:49;7.90;;;2.33;;
64550;SDS011;50945;44.472;-123.352;2023-05-07T07:58:15;8.95;;;2.70;;
64550;SDS011;50945;44.472;-123.352;2023-05-07T08:00:41;7.15;;;2.83;;
64550;SDS011;50945;44.472;-123.352;2023-05-07T08:03:10;7.15;;;3.10;;
64550;SDS011;50945;44.472;-123.352;2023-05-07T08:05:38;7.78;;;2.58;;
64550;SDS011;50945;44.472;-123.352;2023-05-07T08:08:04;5.97;;;2.15;;
64550;SDS011;50945;44.472;-123.352;2023-05-07T08:10:31;1.60;;;1.50;;
64550;SDS011;50945;44.472;-123.352;2023-05-07T08:12:59;2.55;;;1.67;;
64550;SDS011;50945;44.472;-123.352;2023-05-07T08:18:29;4.15;;;1.60;;
64550;SDS011;50945;44.472;-123.352;2023-05-07T08:20:56;3.10;;;1.40;;
64550;SDS011;50945;44.472;-123.352;2023-05-07T08:23:24;1.08;;;1.02;;
64550;SDS011;50945;44.472;-123.352;2023-05-07T08:25:50;1.52;;;1.48;;
64550;SDS011;50945;44.472;-123.352;2023-05-07T08:28:17;1.83;;;1.63;;
64550;SDS011;50945;44.472;-123.352;2023-05-07T08:30:44;5.10;;;2.05;;
64550;SDS011;50945;44.472;-123.352;2023-05-07T08:33:11;5.50;;;2.05;;
64550;SDS011;50945;44.472;-123.352;2023-05-07T08:35:37;4.95;;;2.13;;
64550;SDS011;50945;44.472;-123.352;2023-05-07T08:38:03;4.57;;;2.00;;
64550;SDS011;50945;44.472;-123.352;2023-05-07T08:40:29;4.35;;;2.35;;
64550;SDS011;50945;44.472;-123.352;2023-05-07T08:45:30;4.90;;;2.55;;
64550;SDS011;50945;44.472;-123.352;2023-05-07T08:48:00;5.85;;;2.08;;
64550;SDS011;50945;44.472;-123.352;2023-05-07T08:50:29;2.35;;;1.90;;
64550;SDS011;50945;44.472;-123.352;2023-05-07T08:52:55;4.32;;;1.83;;
64550;SDS011;50945;44.472;-123.352;2023-05-07T08:55:22;1.80;;;1.55;;
64550;SDS011;50945;44.472;-123.352;2023-05-07T08:57:49;2.47;;;1.38;;
64550;SDS011;50945;44.472;-123.352;2023-05-07T09:00:17;1.83;;;1.48;;
64550;SDS011;50945;44.472;-123.352;2023-05-07T09:02:44;2.95;;;1.38;;
64550;SDS011;50945;44.472;-123.352;2023-05-07T09:05:10;1.52;;;1.33;;
64550;SDS011;50945;44.472;-123.352;2023-05-07T09:07:36;3.40;;;1.38;;
64550;SDS011;50945;44.472;-123.352;2023-05-07T09:10:03;1.80;;;1.40;;
64550;SDS011;50945;44.472;-123.352;2023-05-07T09:12:30;2.50;;;1.40;;
64550;SDS011;50945;44.472;-123.352;2023-05-07T09:14:56;2.97;;;1.48;;
64550;SDS011;50945;44.472;-123.352;2023-05-07T09:17:22;1.58;;;1.35;;
64550;SDS011;50945;44.472;-123.352;2023-05-07T09:19:48;2.88;;;1.55;;
64550;SDS011;50945;44.472;-123.352;2023-05-07T09:22:15;4.65;;;1.52;;
64550;SDS011;50945;44.472;-123.352;2023-05-07T09:24:44;5.15;;;1.88;;
64550;SDS011;50945;44.472;-123.352;2023-05-07T09:27:13;3.58;;;1.42;;
64550;SDS011;50945;44.472;-123.352;2023-05-07T09:29:40;4.57;;;1.40;;
64550;SDS011;50945;44.472;-123.352;2023-05-07T09:32:07;2.65;;;1.40;;
64550;SDS011;50945;44.472;-123.352;2023-05-07T09:34:34;5.10;;;1.80;;
64550;SDS011;50945;44.472;-123.352;2023-05-07T09:37:01;1.77;;;1.30;;
64550;SDS011;50945;44.472;-123.352;2023-05-07T09:39:47;2.28;;;1.20;;
64550;SDS011;50945;44.472;-123.352;2023-05-07T09:42:14;1.95;;;1.25;;
64550;SDS011;50945;44.472;-123.352;2023-05-07T09:44:41;2.38;;;1.65;;
64550;SDS011;50945;44.472;-123.352;2023-05-07T09:47:09;2.40;;;1.80;;
64550;SDS011;50945;44.472;-123.352;2023-05-07T09:49:39;3.92;;;1.67;;
64550;SDS011;50945;44.472;-123.352;2023-05-07T09:52:08;1.63;;;1.10;;
64550;SDS011;50945;44.472;-123.352;2023-05-07T09:57:03;1.45;;;1.35;;
64550;SDS011;50945;44.472;-123.352;2023-05-07T09:59:33;2.97;;;1.48;;
64550;SDS011;50945;44.472;-123.352;2023-05-07T10:02:02;1.75;;;1.42;;
64550;SDS011;50945;44.472;-123.352;2023-05-07T10:06:56;1.95;;;1.60;;
64550;SDS011;50945;44.472;-123.352;2023-05-07T10:09:23;2.83;;;1.45;;
64550;SDS011;50945;44.472;-123.352;2023-05-07T10:11:50;1.92;;;1.40;;
64550;SDS011;50945;44.472;-123.352;2023-05-07T10:16:45;3.30;;;1.60;;
64550;SDS011;50945;44.472;-123.352;2023-05-07T10:19:13;2.33;;;1.60;;
64550;SDS011;50945;44.472;-123.352;2023-05-07T10:21:44;1.55;;;1.45;;
64550;SDS011;50945;44.472;-123.352;2023-05-07T10:24:19;3.67;;;1.77;;
64550;SDS011;50945;44.472;-123.352;2023-05-07T10:26:48;2.42;;;1.70;;
64550;SDS011;50945;44.472;-123.352;2023-05-07T10:34:48;2.55;;;1.45;;
64550;SDS011;50945;44.472;-123.352;2023-05-07T10:37:19;1.83;;;1.52;;
64550;SDS011;50945;44.472;-123.352;2023-05-07T10:39:45;2.35;;;1.35;;
64550;SDS011;50945;44.472;-123.352;2023-05-07T10:42:13;1.60;;;1.23;;
64550;SDS011;50945;44.472;-123.352;2023-05-07T10:44:40;1.65;;;1.55;;
64550;SDS011;50945;44.472;-123.352;2023-05-07T10:47:06;2.13;;;1.50;;
64550;SDS011;50945;44.472;-123.352;2023-05-07T10:49:35;3.47;;;1.63;;
64550;SDS011;50945;44.472;-123.352;2023-05-07T10:52:23;2.13;;;1.90;;
64550;SDS011;50945;44.472;-123.352;2023-05-07T10:57:46;3.58;;;1.45;;
64550;SDS011;50945;44.472;-123.352;2023-05-07T11:05:27;1.58;;;1.48;;
64550;SDS011;50945;44.472;-123.352;2023-05-07T11:08:01;3.35;;;1.40;;
64550;SDS011;50945;44.472;-123.352;2023-05-07T11:16:25;2.92;;;1.55;;
64550;SDS011;50945;44.472;-123.352;2023-05-07T11:18:53;3.35;;;1.48;;
64550;SDS011;50945;44.472;-123.352;2023-05-07T11:24:00;1.58;;;1.42;;
64550;SDS011;50945;44.472;-123.352;2023-05-07T11:26:29;1.83;;;1.20;;
64550;SDS011;50945;44.472;-123.352;2023-05-07T11:28:57;1.95;;;1.30;;
64550;SDS011;50945;44.472;-123.352;2023-05-07T11:31:26;2.90;;;1.58;;
64550;SDS011;50945;44.472;-123.352;2023-05-07T11:33:54;1.42;;;1.33;;
64550;SDS011;50945;44.472;-123.352;2023-05-07T11:36:22;2.92;;;1.52;;
64550;SDS011;50945;44.472;-123.352;2023-05-07T11:38:49;2.00;;;1.33;;
64550;SDS011;50945;44.472;-123.352;2023-05-07T11:41:15;1.52;;;1.42;;
64550;SDS011;50945;44.472;-123.352;2023-05-07T11:43:55;4.35;;;2.10;;
64550;SDS011;50945;44.472;-123.352;2023-05-07T11:46:23;3.22;;;1.45;;
64550;SDS011;50945;44.472;-123.352;2023-05-07T11:48:49;5.25;;;1.73;;
64550;SDS011;50945;44.472;-123.352;2023-05-07T11:51:19;1.50;;;1.40;;
64550;SDS011;50945;44.472;-123.352;2023-05-07T11:53:46;2.22;;;1.50;;
64550;SDS011;50945;44.472;-123.352;2023-05-07T11:56:14;2.45;;;2.15;;
64550;SDS011;50945;44.472;-123.352;2023-05-07T11:58:42;3.15;;;1.75;;
64550;SDS011;50945;44.472;-123.352;2023-05-07T12:01:10;2.47;;;2.17;;
64550;SDS011;50945;44.472;-123.352;2023-05-07T12:03:37;2.72;;;1.60;;
64550;SDS011;50945;44.472;-123.352;2023-05-07T12:06:10;2.08;;;1.45;;
64550;SDS011;50945;44.472;-123.352;2023-05-07T12:08:37;2.97;;;1.70;;
64550;SDS011;50945;44.472;-123.352;2023-05-07T12:11:09;3.58;;;1.70;;
64550;SDS011;50945;44.472;-123.352;2023-05-07T12:16:05;4.00;;;1.60;;
64550;SDS011;50945;44.472;-123.352;2023-05-07T12:18:32;2.80;;;2.20;;
64550;SDS011;50945;44.472;-123.352;2023-05-07T12:21:00;3.05;;;1.90;;
64550;SDS011;50945;44.472;-123.352;2023-05-07T12:23:27;3.00;;;1.85;;
64550;SDS011;50945;44.472;-123.352;2023-05-07T12:25:54;1.70;;;1.60;;
64550;SDS011;50945;44.472;-123.352;2023-05-07T12:28:21;4.60;;;1.90;;
64550;SDS011;50945;44.472;-123.352;2023-05-07T12:30:47;1.85;;;1.40;;
64550;SDS011;50945;44.472;-123.352;2023-05-07T12:33:16;2.47;;;1.40;;
64550;SDS011;50945;44.472;-123.352;2023-05-07T12:35:43;2.47;;;1.55;;
64550;SDS011;50945;44.472;-123.352;2023-05-07T12:38:10;4.20;;;1.70;;
64550;SDS011;50945;44.472;-123.352;2023-05-07T12:40:45;2.80;;;2.22;;
64550;SDS011;50945;44.472;-123.352;2023-05-07T12:43:20;3.30;;;2.00;;
64550;SDS011;50945;44.472;-123.352;2023-05-07T12:45:48;2.90;;;1.77;;
64550;SDS011;50945;44.472;-123.352;2023-05-07T12:48:16;4.20;;;1.50;;
64550;SDS011;50945;44.472;-123.352;2023-05-07T12:50:42;4.55;;;1.98;;
64550;SDS011;50945;44.472;-123.352;2023-05-07T12:53:09;4.18;;;1.65;;
64550;SDS011;50945;44.472;-123.352;2023-05-07T12:55:47;3.00;;;1.23;;
64550;SDS011;50945;44.472;-123.352;2023-05-07T12:58:16;2.00;;;1.63;;
64550;SDS011;50945;44.472;-123.352;2023-05-07T13:00:50;2.08;;;1.40;;
64550;SDS011;50945;44.472;-123.352;2023-05-07T13:03:23;1.40;;;1.20;;
64550;SDS011;50945;44.472;-123.352;2023-05-07T13:05:52;3.67;;;1.88;;
64550;SDS011;50945;44.472;-123.352;2023-05-07T13:08:23;2.15;;;1.42;;
64550;SDS011;50945;44.472;-123.352;2023-05-07T13:10:54;1.40;;;1.30;;
64550;SDS011;50945;44.472;-123.352;2023-05-07T13:13:20;1.98;;;1.70;;
64550;SDS011;50945;44.472;-123.352;2023-05-07T13:15:48;1.50;;;1.40;;
64550;SDS011;50945;44.472;-123.352;2023-05-07T13:18:14;1.95;;;1.60;;
64550;SDS011;50945;44.472;-123.352;2023-05-07T13:20:40;2.63;;;1.52;;
64550;SDS011;50945;44.472;-123.352;2023-05-07T13:23:06;1.20;;;1.10;;
64550;SDS011;50945;44.472;-123.352;2023-05-07T13:25:32;2.80;;;1.67;;
64550;SDS011;50945;44.472;-123.352;2023-05-07T13:27:59;5.28;;;1.60;;
64550;SDS011;50945;44.472;-123.352;2023-05-07T13:30:25;1.92;;;1.48;;
64550;SDS011;50945;44.472;-123.352;2023-05-07T13:32:53;1.85;;;1.42;;
64550;SDS011;50945;44.472;-123.352;2023-05-07T13:35:21;2.05;;;1.58;;
64550;SDS011;50945;44.472;-123.352;2023-05-07T13:37:47;3.58;;;2.10;;
64550;SDS011;50945;44.472;-123.352;2023-05-07T13:40:14;2.08;;;1.70;;
64550;SDS011;50945;44.472;-123.352;2023-05-07T13:42:41;2.05;;;1.00;;
64550;SDS011;50945;44.472;-123.352;2023-05-07T13:45:07;3.38;;;1.60;;
64550;SDS011;50945;44.472;-123.352;2023-05-07T13:47:34;1.33;;;1.23;;
64550;SDS011;50945;44.472;-123.352;2023-05-07T13:50:00;2.85;;;1.08;;
64550;SDS011;50945;44.472;-123.352;2023-05-07T13:52:26;1.15;;;1.05;;
64550;SDS011;50945;44.472;-123.352;2023-05-07T13:54:52;4.70;;;1.27;;
64550;SDS011;50945;44.472;-123.352;2023-05-07T13:57:20;2.47;;;1.17;;
64550;SDS011;50945;44.472;-123.352;2023-05-07T13:59:46;1.20;;;1.13;;
64550;SDS011;50945;44.472;-123.352;2023-05-07T14:02:12;2.03;;;1.30;;
64550;SDS011;50945;44.472;-123.352;2023-05-07T14:04:38;5.07;;;1.73;;
64550;SDS011;50945;44.472;-123.352;2023-05-07T14:07:04;2.28;;;1.40;;
64550;SDS011;50945;44.472;-123.352;2023-05-07T14:09:31;1.88;;;1.42;;
64550;SDS011;50945;44.472;-123.352;2023-05-07T14:11:57;3.92;;;1.50;;
64550;SDS011;50945;44.472;-123.352;2023-05-07T14:14:23;5.03;;;1.95;;
64550;SDS011;50945;44.472;-123.352;2023-05-07T14:16:50;1.45;;;1.23;;
64550;SDS011;50945;44.472;-123.352;2023-05-07T14:19:16;1.85;;;1.55;;
64550;SDS011;50945;44.472;-123.352;2023-05-07T14:21:42;1.92;;;1.73;;
64550;SDS011;50945;44.472;-123.352;2023-05-07T14:24:08;2.38;;;1.50;;
64550;SDS011;50945;44.472;-123.352;2023-05-07T14:26:34;3.85;;;1.42;;
64550;SDS011;50945;44.472;-123.352;2023-05-07T14:29:01;2.38;;;1.58;;
64550;SDS011;50945;44.472;-123.352;2023-05-07T14:31:28;2.03;;;1.67;;
64550;SDS011;50945;44.472;-123.352;2023-05-07T14:33:54;1.73;;;1.55;;
64550;SDS011;50945;44.472;-123.352;2023-05-07T14:36:23;1.23;;;1.13;;
64550;SDS011;50945;44.472;-123.352;2023-05-07T14:38:51;2.05;;;1.48;;
64550;SDS011;50945;44.472;-123.352;2023-05-07T14:41:28;1.33;;;1.23;;
64550;SDS011;50945;44.472;-123.352;2023-05-07T14:43:54;1.73;;;1.63;;
64550;SDS011;50945;44.472;-123.352;2023-05-07T14:46:20;2.40;;;1.90;;
64550;SDS011;50945;44.472;-123.352;2023-05-07T14:48:46;3.10;;;1.42;;
64550;SDS011;50945;44.472;-123.352;2023-05-07T14:51:13;3.10;;;2.03;;
64550;SDS011;50945;44.472;-123.352;2023-05-07T14:53:42;3.22;;;1.67;;
64550;SDS011;50945;44.472;-123.352;2023-05-07T14:56:11;2.40;;;1.70;;
64550;SDS011;50945;44.472;-123.352;2023-05-07T14:58:37;1.98;;;1.63;;
64550;SDS011;50945;44.472;-123.352;2023-05-07T15:01:04;3.42;;;1.52;;
64550;SDS011;50945;44.472;-123.352;2023-05-07T15:03:30;3.67;;;1.75;;